Orto / Ocaso: 07:26 / 17:27 UTC (Datos para LEAX 18-01-2018)

[fuente: ADDS]

METAR:


LEMG 182300Z 29002KT CAVOK 11/07 Q1019 NOSIG =
LEGR 182300Z AUTO 22001KT CAVOK 07/05 Q1019 =
LEZL 182300Z 00000KT CAVOK 12/09 Q1019 NOSIG =
LEAM 182300Z AUTO 05009KT 020V080 CAVOK 15/08 Q1019 =
LEBA 182300Z AUTO 00000KT 7000 NCD 06/06 Q1019 =
LEJR 182300Z AUTO VRB01KT CAVOK 09/08 Q1019 =
GEML 182300Z AUTO VRB02KT 9999 FEW013/// SCT025/// BKN031/// 15/13 Q1018 =
LXGB 182250Z AUTO 07016KT 9999 // BKN018/// BKN090/// 15/12 Q1019 =

TAFOR:


TAF LEMG 182300Z 1900/1924 29007KT CAVOK TX18/1914Z TN10/1907Z BECMG 1910/1912 13005KT BECMG 1918/1920 29009KT =
TAF LEGR 182000Z 1821/1921 VRB02KT 9999 SCT050 TX16/1915Z TN02/1907Z =
TAF LEZL 182000Z 1821/1921 06004KT CAVOK TX18/1915Z TN05/1908Z =
TAF LEAM 182000Z 1821/1921 06010KT 9999 SCT050 TX17/1915Z TN12/1907Z BECMG 1822/1824 34005KT BECMG 1910/1912 20010KT BECMG 1918/1920 34007KT =
TAF LEBA 181400Z 1815/1824 09004KT CAVOK =
TAF LEJR 182300Z 1900/1924 VRB03KT CAVOK TX19/1915Z TN02/1908Z =
TAF GEML 182000Z 1821/1921 09009KT 9999 FEW012 BKN018 TX16/1914Z TN11/1907Z PROB40 TEMPO 1821/1824 BKN014 PROB40 TEMPO 1900/1918 4000 RA BKN010 =

Recuerde que, aunque regularmente actualizada, la informacin meteorolgica aqu presentada no debe ser utilizada para la planificacin de vuelos. Si lo desea, puede consultar la informacin meteorolgica adecuada, tanto de aerdromos como en ruta, por las vas oficialmente establecidas en la legislacin -> AQU